sensor_id;sensor_type;location;lat;lon;timestamp;P1;durP1;ratioP1;P2;durP2;ratioP2
78079;SDS011;67298;51.322;5.958;2024-01-27T00:01:14;7.2;;;5.0;;
78079;SDS011;67298;51.322;5.958;2024-01-27T00:05:53;9.1;;;5.0;;
78079;SDS011;67298;51.322;5.958;2024-01-27T00:10:33;9.5;;;5.0;;
78079;SDS011;67298;51.322;5.958;2024-01-27T00:15:12;6.5;;;4.3;;
78079;SDS011;67298;51.322;5.958;2024-01-27T00:19:54;9.6;;;3.9;;
78079;SDS011;67298;51.322;5.958;2024-01-27T00:24:33;6.5;;;3.7;;
78079;SDS011;67298;51.322;5.958;2024-01-27T00:29:12;5.0;;;3.3;;
78079;SDS011;67298;51.322;5.958;2024-01-27T00:33:52;7.9;;;4.3;;
78079;SDS011;67298;51.322;5.958;2024-01-27T00:38:31;9.4;;;4.6;;
78079;SDS011;67298;51.322;5.958;2024-01-27T00:43:10;6.7;;;3.6;;
78079;SDS011;67298;51.322;5.958;2024-01-27T00:47:50;7.4;;;4.4;;
78079;SDS011;67298;51.322;5.958;2024-01-27T00:52:29;4.3;;;3.0;;
78079;SDS011;67298;51.322;5.958;2024-01-27T00:57:09;7.3;;;3.5;;
78079;SDS011;67298;51.322;5.958;2024-01-27T01:01:48;5.3;;;2.7;;
78079;SDS011;67298;51.322;5.958;2024-01-27T01:06:27;10.1;;;3.5;;
78079;SDS011;67298;51.322;5.958;2024-01-27T01:11:07;7.4;;;3.5;;
78079;SDS011;67298;51.322;5.958;2024-01-27T01:15:48;6.2;;;3.2;;
78079;SDS011;67298;51.322;5.958;2024-01-27T01:20:27;3.0;;;2.3;;
78079;SDS011;67298;51.322;5.958;2024-01-27T01:25:07;5.6;;;2.8;;
78079;SDS011;67298;51.322;5.958;2024-01-27T01:29:46;3.7;;;2.4;;
78079;SDS011;67298;51.322;5.958;2024-01-27T01:34:26;5.1;;;3.0;;
78079;SDS011;67298;51.322;5.958;2024-01-27T01:39:05;6.2;;;2.8;;
78079;SDS011;67298;51.322;5.958;2024-01-27T01:43:44;7.7;;;2.9;;
78079;SDS011;67298;51.322;5.958;2024-01-27T01:48:24;5.1;;;2.5;;
78079;SDS011;67298;51.322;5.958;2024-01-27T01:53:03;4.4;;;3.2;;
78079;SDS011;67298;51.322;5.958;2024-01-27T01:57:45;3.0;;;2.6;;
78079;SDS011;67298;51.322;5.958;2024-01-27T02:02:24;3.6;;;2.2;;
78079;SDS011;67298;51.322;5.958;2024-01-27T02:07:03;3.4;;;1.6;;
78079;SDS011;67298;51.322;5.958;2024-01-27T02:11:43;5.3;;;2.1;;
78079;SDS011;67298;51.322;5.958;2024-01-27T02:16:22;2.3;;;1.8;;
78079;SDS011;67298;51.322;5.958;2024-01-27T02:21:02;3.0;;;1.8;;
78079;SDS011;67298;51.322;5.958;2024-01-27T02:25:41;4.6;;;2.0;;
78079;SDS011;67298;51.322;5.958;2024-01-27T02:30:20;4.7;;;2.6;;
78079;SDS011;67298;51.322;5.958;2024-01-27T02:35:00;0.9;;;0.9;;
78079;SDS011;67298;51.322;5.958;2024-01-27T02:39:39;3.1;;;1.9;;
78079;SDS011;67298;51.322;5.958;2024-01-27T02:44:19;2.2;;;1.5;;
78079;SDS011;67298;51.322;5.958;2024-01-27T02:49:02;3.1;;;1.7;;
78079;SDS011;67298;51.322;5.958;2024-01-27T02:53:41;2.4;;;1.7;;
78079;SDS011;67298;51.322;5.958;2024-01-27T02:58:21;3.4;;;1.7;;
78079;SDS011;67298;51.322;5.958;2024-01-27T03:03:01;4.1;;;2.3;;
78079;SDS011;67298;51.322;5.958;2024-01-27T03:07:43;4.5;;;3.1;;
78079;SDS011;67298;51.322;5.958;2024-01-27T03:12:22;5.6;;;3.3;;
78079;SDS011;67298;51.322;5.958;2024-01-27T03:17:01;8.4;;;4.6;;
78079;SDS011;67298;51.322;5.958;2024-01-27T03:21:41;6.4;;;4.1;;
78079;SDS011;67298;51.322;5.958;2024-01-27T03:26:20;6.5;;;4.2;;
78079;SDS011;67298;51.322;5.958;2024-01-27T03:31:00;8.1;;;4.7;;
78079;SDS011;67298;51.322;5.958;2024-01-27T03:35:39;4.6;;;4.3;;
78079;SDS011;67298;51.322;5.958;2024-01-27T03:40:18;10.0;;;6.8;;
78079;SDS011;67298;51.322;5.958;2024-01-27T03:44:58;10.3;;;5.9;;
78079;SDS011;67298;51.322;5.958;2024-01-27T03:49:38;9.4;;;6.2;;
78079;SDS011;67298;51.322;5.958;2024-01-27T03:54:17;14.8;;;7.6;;
78079;SDS011;67298;51.322;5.958;2024-01-27T03:58:56;9.2;;;6.9;;
78079;SDS011;67298;51.322;5.958;2024-01-27T04:03:36;11.7;;;8.2;;
78079;SDS011;67298;51.322;5.958;2024-01-27T04:08:15;7.8;;;6.3;;
78079;SDS011;67298;51.322;5.958;2024-01-27T04:12:54;11.6;;;7.4;;
78079;SDS011;67298;51.322;5.958;2024-01-27T04:17:34;12.1;;;6.7;;
78079;SDS011;67298;51.322;5.958;2024-01-27T04:22:13;6.5;;;5.1;;
78079;SDS011;67298;51.322;5.958;2024-01-27T04:26:53;8.1;;;5.7;;
78079;SDS011;67298;51.322;5.958;2024-01-27T04:31:32;7.3;;;5.0;;
78079;SDS011;67298;51.322;5.958;2024-01-27T04:36:12;6.0;;;5.1;;
78079;SDS011;67298;51.322;5.958;2024-01-27T04:40:51;7.0;;;5.1;;
78079;SDS011;67298;51.322;5.958;2024-01-27T04:45:33;6.0;;;3.6;;
78079;SDS011;67298;51.322;5.958;2024-01-27T04:50:12;7.5;;;5.5;;
78079;SDS011;67298;51.322;5.958;2024-01-27T04:54:51;7.0;;;5.5;;
78079;SDS011;67298;51.322;5.958;2024-01-27T04:59:31;7.4;;;4.7;;
78079;SDS011;67298;51.322;5.958;2024-01-27T05:04:12;6.2;;;5.0;;
78079;SDS011;67298;51.322;5.958;2024-01-27T05:08:52;4.7;;;3.7;;
78079;SDS011;67298;51.322;5.958;2024-01-27T05:13:31;2.4;;;2.2;;
78079;SDS011;67298;51.322;5.958;2024-01-27T05:18:11;5.2;;;3.6;;
78079;SDS011;67298;51.322;5.958;2024-01-27T05:22:50;3.7;;;3.1;;
78079;SDS011;67298;51.322;5.958;2024-01-27T05:27:30;3.9;;;3.3;;
78079;SDS011;67298;51.322;5.958;2024-01-27T05:32:10;4.3;;;3.1;;
78079;SDS011;67298;51.322;5.958;2024-01-27T05:36:49;3.4;;;3.1;;
78079;SDS011;67298;51.322;5.958;2024-01-27T05:41:30;5.4;;;3.1;;
78079;SDS011;67298;51.322;5.958;2024-01-27T05:46:14;3.0;;;2.2;;
78079;SDS011;67298;51.322;5.958;2024-01-27T05:50:53;3.8;;;2.8;;
78079;SDS011;67298;51.322;5.958;2024-01-27T05:55:33;3.2;;;2.8;;
78079;SDS011;67298;51.322;5.958;2024-01-27T06:00:12;3.4;;;3.1;;
78079;SDS011;67298;51.322;5.958;2024-01-27T06:04:52;4.3;;;3.4;;
78079;SDS011;67298;51.322;5.958;2024-01-27T06:09:31;3.4;;;2.4;;
78079;SDS011;67298;51.322;5.958;2024-01-27T06:14:10;1.9;;;1.8;;
78079;SDS011;67298;51.322;5.958;2024-01-27T06:18:50;3.1;;;2.8;;
78079;SDS011;67298;51.322;5.958;2024-01-27T06:23:29;2.8;;;2.2;;
78079;SDS011;67298;51.322;5.958;2024-01-27T06:28:08;2.8;;;2.4;;
78079;SDS011;67298;51.322;5.958;2024-01-27T06:32:50;2.9;;;2.6;;
78079;SDS011;67298;51.322;5.958;2024-01-27T06:37:29;1.7;;;1.4;;
78079;SDS011;67298;51.322;5.958;2024-01-27T06:42:09;2.2;;;2.0;;
78079;SDS011;67298;51.322;5.958;2024-01-27T06:46:48;2.4;;;2.2;;
78079;SDS011;67298;51.322;5.958;2024-01-27T06:51:28;2.4;;;2.2;;
78079;SDS011;67298;51.322;5.958;2024-01-27T06:56:07;2.1;;;1.9;;
78079;SDS011;67298;51.322;5.958;2024-01-27T07:00:46;1.8;;;1.4;;
78079;SDS011;67298;51.322;5.958;2024-01-27T07:05:26;2.0;;;1.4;;
78079;SDS011;67298;51.322;5.958;2024-01-27T07:10:05;3.2;;;1.2;;
78079;SDS011;67298;51.322;5.958;2024-01-27T07:14:45;0.7;;;0.4;;
78079;SDS011;67298;51.322;5.958;2024-01-27T07:19:24;2.5;;;1.7;;
78079;SDS011;67298;51.322;5.958;2024-01-27T07:24:03;1.7;;;1.6;;
78079;SDS011;67298;51.322;5.958;2024-01-27T07:28:43;1.8;;;1.6;;
78079;SDS011;67298;51.322;5.958;2024-01-27T07:33:22;2.2;;;1.7;;
78079;SDS011;67298;51.322;5.958;2024-01-27T07:38:02;1.7;;;1.4;;
78079;SDS011;67298;51.322;5.958;2024-01-27T07:42:41;2.8;;;1.7;;
78079;SDS011;67298;51.322;5.958;2024-01-27T07:47:20;2.4;;;1.6;;
78079;SDS011;67298;51.322;5.958;2024-01-27T07:52:00;0.6;;;0.6;;
78079;SDS011;67298;51.322;5.958;2024-01-27T07:56:39;1.7;;;1.6;;
78079;SDS011;67298;51.322;5.958;2024-01-27T08:01:19;2.2;;;1.5;;
78079;SDS011;67298;51.322;5.958;2024-01-27T08:05:58;1.9;;;1.7;;
78079;SDS011;67298;51.322;5.958;2024-01-27T08:10:38;2.5;;;1.9;;
78079;SDS011;67298;51.322;5.958;2024-01-27T08:15:17;2.0;;;1.1;;
78079;SDS011;67298;51.322;5.958;2024-01-27T08:19:56;2.0;;;1.7;;
78079;SDS011;67298;51.322;5.958;2024-01-27T08:24:36;1.8;;;1.5;;
78079;SDS011;67298;51.322;5.958;2024-01-27T08:29:16;2.9;;;1.7;;
78079;SDS011;67298;51.322;5.958;2024-01-27T08:33:55;2.4;;;1.8;;
78079;SDS011;67298;51.322;5.958;2024-01-27T08:38:36;1.7;;;1.6;;
78079;SDS011;67298;51.322;5.958;2024-01-27T08:43:16;2.2;;;1.5;;
78079;SDS011;67298;51.322;5.958;2024-01-27T08:47:58;1.5;;;1.4;;
78079;SDS011;67298;51.322;5.958;2024-01-27T08:52:38;0.6;;;0.6;;
78079;SDS011;67298;51.322;5.958;2024-01-27T08:57:17;1.6;;;1.3;;
78079;SDS011;67298;51.322;5.958;2024-01-27T09:01:57;1.8;;;1.1;;
78079;SDS011;67298;51.322;5.958;2024-01-27T09:06:36;2.5;;;1.3;;
78079;SDS011;67298;51.322;5.958;2024-01-27T09:11:19;2.0;;;0.7;;
78079;SDS011;67298;51.322;5.958;2024-01-27T09:15:59;0.5;;;0.5;;
78079;SDS011;67298;51.322;5.958;2024-01-27T09:20:38;0.8;;;0.7;;
78079;SDS011;67298;51.322;5.958;2024-01-27T09:25:18;1.8;;;0.7;;
78079;SDS011;67298;51.322;5.958;2024-01-27T09:29:57;1.4;;;0.6;;
78079;SDS011;67298;51.322;5.958;2024-01-27T09:34:37;1.1;;;0.4;;
78079;SDS011;67298;51.322;5.958;2024-01-27T09:39:16;1.8;;;0.8;;
78079;SDS011;67298;51.322;5.958;2024-01-27T09:43:56;0.8;;;0.4;;
78079;SDS011;67298;51.322;5.958;2024-01-27T09:48:35;1.6;;;0.7;;
78079;SDS011;67298;51.322;5.958;2024-01-27T09:53:15;0.1;;;0.1;;
78079;SDS011;67298;51.322;5.958;2024-01-27T09:57:54;0.9;;;0.3;;
78079;SDS011;67298;51.322;5.958;2024-01-27T10:02:33;2.0;;;0.3;;
78079;SDS011;67298;51.322;5.958;2024-01-27T10:07:13;2.2;;;0.4;;
78079;SDS011;67298;51.322;5.958;2024-01-27T10:11:52;0.6;;;0.3;;
78079;SDS011;67298;51.322;5.958;2024-01-27T10:16:32;2.1;;;0.8;;
78079;SDS011;67298;51.322;5.958;2024-01-27T10:21:11;2.1;;;0.6;;
78079;SDS011;67298;51.322;5.958;2024-01-27T10:25:50;0.3;;;0.3;;
78079;SDS011;67298;51.322;5.958;2024-01-27T10:30:30;4.2;;;0.7;;
78079;SDS011;67298;51.322;5.958;2024-01-27T10:35:09;1.0;;;0.4;;
78079;SDS011;67298;51.322;5.958;2024-01-27T10:39:49;1.3;;;0.6;;
78079;SDS011;67298;51.322;5.958;2024-01-27T10:44:30;1.0;;;0.5;;
78079;SDS011;67298;51.322;5.958;2024-01-27T10:49:10;1.0;;;0.7;;
78079;SDS011;67298;51.322;5.958;2024-01-27T10:53:49;0.5;;;0.5;;
78079;SDS011;67298;51.322;5.958;2024-01-27T10:58:31;1.7;;;0.8;;
78079;SDS011;67298;51.322;5.958;2024-01-27T11:03:10;1.0;;;0.9;;
78079;SDS011;67298;51.322;5.958;2024-01-27T11:07:50;1.1;;;0.7;;
78079;SDS011;67298;51.322;5.958;2024-01-27T11:12:29;1.2;;;0.8;;
78079;SDS011;67298;51.322;5.958;2024-01-27T11:17:12;1.4;;;0.6;;
78079;SDS011;67298;51.322;5.958;2024-01-27T11:21:53;2.6;;;1.4;;
78079;SDS011;67298;51.322;5.958;2024-01-27T11:26:34;1.6;;;1.0;;
78079;SDS011;67298;51.322;5.958;2024-01-27T11:31:14;6.9;;;0.6;;
78079;SDS011;67298;51.322;5.958;2024-01-27T11:35:53;3.6;;;1.6;;
78079;SDS011;67298;51.322;5.958;2024-01-27T11:40:35;2.4;;;1.7;;
78079;SDS011;67298;51.322;5.958;2024-01-27T11:45:14;2.7;;;1.6;;
78079;SDS011;67298;51.322;5.958;2024-01-27T11:49:54;2.5;;;2.0;;
78079;SDS011;67298;51.322;5.958;2024-01-27T11:54:34;5.4;;;3.0;;
78079;SDS011;67298;51.322;5.958;2024-01-27T11:59:14;5.1;;;2.7;;
78079;SDS011;67298;51.322;5.958;2024-01-27T12:03:54;5.1;;;1.7;;
78079;SDS011;67298;51.322;5.958;2024-01-27T12:08:36;4.6;;;2.2;;
78079;SDS011;67298;51.322;5.958;2024-01-27T12:13:16;5.2;;;3.4;;
78079;SDS011;67298;51.322;5.958;2024-01-27T12:17:55;6.0;;;3.1;;
78079;SDS011;67298;51.322;5.958;2024-01-27T12:22:37;4.8;;;3.0;;
78079;SDS011;67298;51.322;5.958;2024-01-27T12:27:16;5.8;;;3.5;;
78079;SDS011;67298;51.322;5.958;2024-01-27T12:31:59;3.2;;;2.3;;
78079;SDS011;67298;51.322;5.958;2024-01-27T12:36:39;6.0;;;3.4;;
78079;SDS011;67298;51.322;5.958;2024-01-27T12:41:18;5.3;;;2.7;;
78079;SDS011;67298;51.322;5.958;2024-01-27T12:45:58;5.6;;;3.0;;
78079;SDS011;67298;51.322;5.958;2024-01-27T12:50:40;5.8;;;2.6;;
78079;SDS011;67298;51.322;5.958;2024-01-27T12:55:19;3.9;;;2.6;;
78079;SDS011;67298;51.322;5.958;2024-01-27T12:59:59;4.3;;;2.7;;
78079;SDS011;67298;51.322;5.958;2024-01-27T13:04:41;2.7;;;1.9;;
78079;SDS011;67298;51.322;5.958;2024-01-27T13:09:20;1.8;;;1.3;;
78079;SDS011;67298;51.322;5.958;2024-01-27T13:14:00;4.5;;;1.8;;
78079;SDS011;67298;51.322;5.958;2024-01-27T13:18:39;1.7;;;1.4;;
78079;SDS011;67298;51.322;5.958;2024-01-27T13:23:19;2.3;;;1.6;;
78079;SDS011;67298;51.322;5.958;2024-01-27T13:27:58;2.4;;;1.4;;
78079;SDS011;67298;51.322;5.958;2024-01-27T13:32:39;7.2;;;1.1;;
78079;SDS011;67298;51.322;5.958;2024-01-27T13:37:18;2.9;;;1.2;;
78079;SDS011;67298;51.322;5.958;2024-01-27T13:41:58;0.7;;;0.7;;
78079;SDS011;67298;51.322;5.958;2024-01-27T13:46:38;1.5;;;0.9;;
78079;SDS011;67298;51.322;5.958;2024-01-27T13:51:17;3.2;;;1.0;;
78079;SDS011;67298;51.322;5.958;2024-01-27T13:55:56;2.5;;;1.6;;
78079;SDS011;67298;51.322;5.958;2024-01-27T14:00:38;1.6;;;1.1;;
78079;SDS011;67298;51.322;5.958;2024-01-27T14:05:17;2.4;;;0.6;;
78079;SDS011;67298;51.322;5.958;2024-01-27T14:09:57;0.9;;;0.9;;
78079;SDS011;67298;51.322;5.958;2024-01-27T14:14:37;0.8;;;0.6;;
78079;SDS011;67298;51.322;5.958;2024-01-27T14:19:16;1.2;;;0.4;;
78079;SDS011;67298;51.322;5.958;2024-01-27T14:23:55;1.7;;;0.7;;
78079;SDS011;67298;51.322;5.958;2024-01-27T14:28:35;1.2;;;0.6;;
78079;SDS011;67298;51.322;5.958;2024-01-27T14:33:15;0.5;;;0.5;;
78079;SDS011;67298;51.322;5.958;2024-01-27T14:37:54;1.3;;;0.5;;
78079;SDS011;67298;51.322;5.958;2024-01-27T14:42:36;0.5;;;0.5;;
78079;SDS011;67298;51.322;5.958;2024-01-27T14:47:15;1.0;;;0.5;;
78079;SDS011;67298;51.322;5.958;2024-01-27T14:51:55;2.7;;;1.1;;
78079;SDS011;67298;51.322;5.958;2024-01-27T14:56:36;2.7;;;0.9;;
78079;SDS011;67298;51.322;5.958;2024-01-27T15:01:16;1.7;;;0.8;;
78079;SDS011;67298;51.322;5.958;2024-01-27T15:05:55;0.8;;;0.5;;
78079;SDS011;67298;51.322;5.958;2024-01-27T15:10:37;1.4;;;0.7;;
78079;SDS011;67298;51.322;5.958;2024-01-27T15:15:16;1.2;;;0.8;;
78079;SDS011;67298;51.322;5.958;2024-01-27T15:19:55;2.5;;;0.9;;
78079;SDS011;67298;51.322;5.958;2024-01-27T15:24:35;1.6;;;0.8;;
78079;SDS011;67298;51.322;5.958;2024-01-27T15:29:15;0.6;;;0.5;;
78079;SDS011;67298;51.322;5.958;2024-01-27T15:33:54;1.7;;;0.6;;
78079;SDS011;67298;51.322;5.958;2024-01-27T15:38:33;1.7;;;0.6;;
78079;SDS011;67298;51.322;5.958;2024-01-27T15:43:13;1.2;;;0.6;;
78079;SDS011;67298;51.322;5.958;2024-01-27T15:47:52;0.5;;;0.5;;
78079;SDS011;67298;51.322;5.958;2024-01-27T15:52:31;0.6;;;0.4;;
78079;SDS011;67298;51.322;5.958;2024-01-27T15:57:11;2.0;;;0.5;;
78079;SDS011;67298;51.322;5.958;2024-01-27T16:01:50;0.9;;;0.5;;
78079;SDS011;67298;51.322;5.958;2024-01-27T16:06:30;0.8;;;0.5;;
78079;SDS011;67298;51.322;5.958;2024-01-27T16:11:09;0.6;;;0.5;;
78079;SDS011;67298;51.322;5.958;2024-01-27T16:15:49;1.8;;;0.6;;
78079;SDS011;67298;51.322;5.958;2024-01-27T16:20:28;0.9;;;0.6;;
78079;SDS011;67298;51.322;5.958;2024-01-27T16:25:08;1.4;;;1.3;;
78079;SDS011;67298;51.322;5.958;2024-01-27T16:29:47;0.6;;;0.4;;
78079;SDS011;67298;51.322;5.958;2024-01-27T16:34:27;0.6;;;0.6;;
78079;SDS011;67298;51.322;5.958;2024-01-27T16:39:06;0.5;;;0.5;;
78079;SDS011;67298;51.322;5.958;2024-01-27T16:43:45;0.4;;;0.4;;
78079;SDS011;67298;51.322;5.958;2024-01-27T16:48:25;0.3;;;0.3;;
78079;SDS011;67298;51.322;5.958;2024-01-27T16:53:04;0.5;;;0.5;;
78079;SDS011;67298;51.322;5.958;2024-01-27T16:57:43;0.2;;;0.2;;
78079;SDS011;67298;51.322;5.958;2024-01-27T17:02:25;0.5;;;0.5;;
78079;SDS011;67298;51.322;5.958;2024-01-27T17:07:04;0.7;;;0.6;;
78079;SDS011;67298;51.322;5.958;2024-01-27T17:11:44;1.3;;;0.6;;
78079;SDS011;67298;51.322;5.958;2024-01-27T17:16:23;0.9;;;0.8;;
78079;SDS011;67298;51.322;5.958;2024-01-27T17:21:03;1.0;;;0.9;;
78079;SDS011;67298;51.322;5.958;2024-01-27T17:25:42;1.2;;;1.0;;
78079;SDS011;67298;51.322;5.958;2024-01-27T17:30:21;2.4;;;1.4;;
78079;SDS011;67298;51.322;5.958;2024-01-27T17:35:01;3.9;;;1.4;;
78079;SDS011;67298;51.322;5.958;2024-01-27T17:39:40;2.6;;;1.4;;
78079;SDS011;67298;51.322;5.958;2024-01-27T17:44:20;1.6;;;1.1;;
78079;SDS011;67298;51.322;5.958;2024-01-27T17:48:59;1.3;;;1.2;;
78079;SDS011;67298;51.322;5.958;2024-01-27T17:53:38;1.9;;;1.1;;
78079;SDS011;67298;51.322;5.958;2024-01-27T17:58:18;1.8;;;0.8;;
78079;SDS011;67298;51.322;5.958;2024-01-27T18:02:57;2.7;;;0.9;;
78079;SDS011;67298;51.322;5.958;2024-01-27T18:07:37;1.5;;;0.8;;
78079;SDS011;67298;51.322;5.958;2024-01-27T18:12:16;2.5;;;1.2;;
78079;SDS011;67298;51.322;5.958;2024-01-27T18:16:56;1.7;;;0.9;;
78079;SDS011;67298;51.322;5.958;2024-01-27T18:21:35;2.4;;;0.8;;
78079;SDS011;67298;51.322;5.958;2024-01-27T18:26:16;3.0;;;1.1;;
78079;SDS011;67298;51.322;5.958;2024-01-27T18:30:56;4.0;;;1.1;;
78079;SDS011;67298;51.322;5.958;2024-01-27T18:35:36;3.9;;;0.8;;
78079;SDS011;67298;51.322;5.958;2024-01-27T18:40:15;3.4;;;0.8;;
78079;SDS011;67298;51.322;5.958;2024-01-27T18:44:57;1.8;;;0.8;;
78079;SDS011;67298;51.322;5.958;2024-01-27T18:49:37;4.1;;;0.7;;
78079;SDS011;67298;51.322;5.958;2024-01-27T18:54:16;2.2;;;0.9;;
78079;SDS011;67298;51.322;5.958;2024-01-27T18:58:55;2.8;;;1.3;;
78079;SDS011;67298;51.322;5.958;2024-01-27T19:03:35;2.5;;;1.5;;
78079;SDS011;67298;51.322;5.958;2024-01-27T19:08:14;3.6;;;0.8;;
78079;SDS011;67298;51.322;5.958;2024-01-27T19:12:54;5.5;;;1.0;;
78079;SDS011;67298;51.322;5.958;2024-01-27T19:17:33;3.0;;;0.7;;
78079;SDS011;67298;51.322;5.958;2024-01-27T19:22:12;3.2;;;0.7;;
78079;SDS011;67298;51.322;5.958;2024-01-27T19:26:52;0.6;;;0.6;;
78079;SDS011;67298;51.322;5.958;2024-01-27T19:31:31;1.1;;;0.6;;
78079;SDS011;67298;51.322;5.958;2024-01-27T19:36:11;2.3;;;0.5;;
78079;SDS011;67298;51.322;5.958;2024-01-27T19:40:50;3.9;;;0.9;;
78079;SDS011;67298;51.322;5.958;2024-01-27T19:45:30;2.4;;;0.8;;
78079;SDS011;67298;51.322;5.958;2024-01-27T19:50:09;3.5;;;0.9;;
78079;SDS011;67298;51.322;5.958;2024-01-27T19:54:49;3.1;;;0.8;;
78079;SDS011;67298;51.322;5.958;2024-01-27T19:59:28;3.0;;;0.5;;
78079;SDS011;67298;51.322;5.958;2024-01-27T20:04:07;3.2;;;0.8;;
78079;SDS011;67298;51.322;5.958;2024-01-27T20:08:47;2.1;;;0.9;;
78079;SDS011;67298;51.322;5.958;2024-01-27T20:13:26;2.2;;;0.8;;
78079;SDS011;67298;51.322;5.958;2024-01-27T20:18:06;2.4;;;0.9;;
78079;SDS011;67298;51.322;5.958;2024-01-27T20:22:45;3.5;;;1.2;;
78079;SDS011;67298;51.322;5.958;2024-01-27T20:27:24;1.1;;;1.0;;
78079;SDS011;67298;51.322;5.958;2024-01-27T20:32:04;3.2;;;1.3;;
78079;SDS011;67298;51.322;5.958;2024-01-27T20:36:43;3.2;;;1.5;;
78079;SDS011;67298;51.322;5.958;2024-01-27T20:41:23;2.6;;;1.2;;
78079;SDS011;67298;51.322;5.958;2024-01-27T20:46:02;4.7;;;1.5;;
78079;SDS011;67298;51.322;5.958;2024-01-27T20:50:43;3.9;;;1.0;;
78079;SDS011;67298;51.322;5.958;2024-01-27T20:55:23;3.6;;;1.1;;
78079;SDS011;67298;51.322;5.958;2024-01-27T21:00:02;5.9;;;1.0;;
78079;SDS011;67298;51.322;5.958;2024-01-27T21:04:42;0.0;;;0.0;;
78079;SDS011;67298;51.322;5.958;2024-01-27T21:09:22;2.4;;;1.1;;
78079;SDS011;67298;51.322;5.958;2024-01-27T21:14:01;3.7;;;1.0;;
78079;SDS011;67298;51.322;5.958;2024-01-27T21:18:40;3.3;;;1.4;;
78079;SDS011;67298;51.322;5.958;2024-01-27T21:23:20;1.9;;;1.2;;
78079;SDS011;67298;51.322;5.958;2024-01-27T21:27:59;1.4;;;1.1;;
78079;SDS011;67298;51.322;5.958;2024-01-27T21:32:38;2.8;;;1.2;;
78079;SDS011;67298;51.322;5.958;2024-01-27T21:37:18;1.8;;;1.5;;
78079;SDS011;67298;51.322;5.958;2024-01-27T21:41:57;4.1;;;1.5;;
78079;SDS011;67298;51.322;5.958;2024-01-27T21:46:37;2.9;;;1.3;;
78079;SDS011;67298;51.322;5.958;2024-01-27T21:51:16;3.5;;;1.2;;
78079;SDS011;67298;51.322;5.958;2024-01-27T21:55:55;2.6;;;1.1;;
78079;SDS011;67298;51.322;5.958;2024-01-27T22:00:35;4.4;;;1.4;;
78079;SDS011;67298;51.322;5.958;2024-01-27T22:05:14;2.0;;;1.8;;
78079;SDS011;67298;51.322;5.958;2024-01-27T22:09:54;3.5;;;1.2;;
78079;SDS011;67298;51.322;5.958;2024-01-27T22:14:33;3.1;;;1.0;;
78079;SDS011;67298;51.322;5.958;2024-01-27T22:19:12;4.9;;;1.4;;
78079;SDS011;67298;51.322;5.958;2024-01-27T22:23:52;4.7;;;1.3;;
78079;SDS011;67298;51.322;5.958;2024-01-27T22:28:33;1.8;;;1.5;;
78079;SDS011;67298;51.322;5.958;2024-01-27T22:33:13;2.3;;;1.4;;
78079;SDS011;67298;51.322;5.958;2024-01-27T22:37:52;3.4;;;1.2;;
78079;SDS011;67298;51.322;5.958;2024-01-27T22:42:34;6.0;;;1.5;;
78079;SDS011;67298;51.322;5.958;2024-01-27T22:47:13;6.5;;;1.8;;
78079;SDS011;67298;51.322;5.958;2024-01-27T22:51:53;5.7;;;1.2;;
78079;SDS011;67298;51.322;5.958;2024-01-27T22:56:34;4.3;;;1.3;;
78079;SDS011;67298;51.322;5.958;2024-01-27T23:01:14;4.3;;;1.2;;
78079;SDS011;67298;51.322;5.958;2024-01-27T23:05:53;5.4;;;1.1;;
78079;SDS011;67298;51.322;5.958;2024-01-27T23:10:32;4.5;;;1.4;;
78079;SDS011;67298;51.322;5.958;2024-01-27T23:15:12;4.2;;;1.6;;
78079;SDS011;67298;51.322;5.958;2024-01-27T23:19:52;4.5;;;1.6;;
78079;SDS011;67298;51.322;5.958;2024-01-27T23:24:31;4.8;;;1.7;;
78079;SDS011;67298;51.322;5.958;2024-01-27T23:29:10;1.7;;;1.3;;
78079;SDS011;67298;51.322;5.958;2024-01-27T23:33:50;4.1;;;1.5;;
78079;SDS011;67298;51.322;5.958;2024-01-27T23:38:29;5.3;;;1.5;;
78079;SDS011;67298;51.322;5.958;2024-01-27T23:43:09;2.4;;;0.9;;
78079;SDS011;67298;51.322;5.958;2024-01-27T23:47:48;3.9;;;1.5;;
78079;SDS011;67298;51.322;5.958;2024-01-27T23:52:29;5.1;;;1.7;;
78079;SDS011;67298;51.322;5.958;2024-01-27T23:57:09;4.9;;;1.9;;
